Hovedside
METAR-TAF:

METAR-TAF

Lufthavner :

Pulkovo internasjonale lufthavn

St. Petersburg, Russland

breddegrad: 59-58N, lengdegrad: 030-18E, høyde over havet: 4 m

Gjeldene værobservasjon

Denne rapporten ble laget for 40 minutter siden, klokken 16:00 UTC
Vind 6 kt fra Øst-sørøst
Temperatur 17°C
Luftfuktighet 68%
Trykk 1020 hPa
Sikt 10 km eller mer
ingen skyer under 1500 m og ingen bygeskyer

METAR: ULLI 271600Z 11003MPS CAVOK 17/11 Q1020 R10R/090060 NOSIG

Tid: 19:40 (16:40 UTC)

Varsel

Denne rapporten ble laget for 2 timer og 45 minutter siden, klokken 13:55 UTC
Varsel gyldig fra 27. klokken 15 UTC til 28. klokken 15 UTC
Vind 6 kt fra Øst
Sikt 10 km eller mer
ingen skyer under 1500 m og ingen bygeskyer
Midlertidig
fra 27. klokken 15 UTC til 27. klokken 18 UTC
Vind 10 kt fra Øst med vindkast opp mot 19 kt
Midlertidig
fra 28. klokken 00 UTC til 28. klokken 05 UTC
Sikt: 5000 m
dis

TAF: ULLI 271355Z 2715/2815 10003MPS CAVOK TEMPO 2715/2718 10005G10MPS TEMPO 2800/2805 5000 BR

Værobservasjoner og værvarsel for over 4000 flyplasser (METAR- og TAF-rapporter).

Tilgjengelige stasjoner er representert av de røde og gule prikkene på kartet.

Hold musepekeren over prikken for å se navnet på stasjonen.

Klikk så for å se værobservasjoner og -varsler.

For å forandre kartet kan du klikke på den grønne knappen med svart kryss for å zoome inn, på den grønne knappen med strek for å zoome ut, eller på de grønne pilene for å se tilstøtende kart.


METAR-TAF: